createdAt,value
2017-12-22T00:01:00.950Z,3.31
2017-12-22T00:03:28.411Z,3.35
2017-12-22T00:05:55.852Z,3.28
2017-12-22T00:08:23.610Z,3.29
2017-12-22T00:10:51.065Z,3.22
2017-12-22T00:13:18.517Z,3.29
2017-12-22T00:15:47.246Z,3.21
2017-12-22T00:18:14.704Z,3.30
2017-12-22T00:20:42.153Z,3.26
2017-12-22T00:23:09.932Z,3.27
2017-12-22T00:25:37.388Z,3.31
2017-12-22T00:28:07.397Z,3.30
2017-12-22T00:30:35.204Z,3.36
2017-12-22T00:33:02.670Z,3.29
2017-12-22T00:35:30.145Z,3.30
2017-12-22T00:37:57.773Z,3.29
2017-12-22T00:40:25.225Z,3.28
2017-12-22T00:42:52.700Z,3.25
2017-12-22T00:45:20.444Z,3.31
2017-12-22T00:47:47.899Z,3.21
2017-12-22T00:50:15.357Z,3.16
2017-12-22T00:52:43.175Z,3.19
2017-12-22T00:55:10.642Z,3.21
2017-12-22T00:57:38.102Z,3.24
2017-12-22T01:00:05.828Z,3.17
2017-12-22T01:02:33.297Z,3.27
2017-12-22T01:05:00.754Z,3.26
2017-12-22T01:07:29.431Z,3.32
2017-12-22T01:09:56.896Z,3.35
2017-12-22T01:12:24.357Z,3.37
2017-12-22T01:14:52.126Z,3.40
2017-12-22T01:17:25.214Z,3.47
2017-12-22T01:19:52.698Z,3.52
2017-12-22T01:22:20.636Z,3.56
2017-12-22T01:24:48.106Z,3.50
2017-12-22T01:27:15.567Z,3.59
2017-12-22T01:29:44.253Z,3.67
2017-12-22T01:32:11.721Z,3.69
2017-12-22T01:34:39.189Z,3.72
2017-12-22T01:37:08.231Z,3.75
2017-12-22T01:39:35.693Z,3.74
2017-12-22T01:42:03.144Z,3.77
2017-12-22T01:44:30.858Z,3.76
2017-12-22T01:46:58.329Z,3.71
2017-12-22T01:49:25.785Z,3.76
2017-12-22T01:51:53.529Z,3.77
2017-12-22T01:54:20.985Z,3.80
2017-12-22T01:56:48.445Z,3.84
2017-12-22T01:59:16.230Z,3.72
2017-12-22T02:01:43.682Z,3.79
2017-12-22T02:04:11.141Z,3.86
2017-12-22T02:06:38.907Z,3.84
2017-12-22T02:09:06.357Z,3.95
2017-12-22T02:11:33.810Z,3.84
2017-12-22T02:14:01.592Z,3.96
2017-12-22T02:16:29.059Z,4.02
2017-12-22T02:18:56.522Z,3.94
2017-12-22T02:21:24.245Z,3.99
2017-12-22T02:23:51.717Z,3.89
2017-12-22T02:26:19.186Z,3.97
2017-12-22T02:28:46.973Z,3.92
2017-12-22T02:31:14.809Z,3.74
2017-12-22T02:33:42.265Z,3.78
2017-12-22T02:36:10.139Z,3.79
2017-12-22T02:38:37.599Z,3.83
2017-12-22T02:41:05.057Z,3.85
2017-12-22T02:43:32.958Z,3.85
2017-12-22T02:46:00.414Z,3.94
2017-12-22T02:48:27.863Z,3.98
2017-12-22T02:50:55.657Z,4.01
2017-12-22T02:53:23.121Z,3.99
2017-12-22T02:55:50.569Z,4.02
2017-12-22T02:58:18.338Z,3.97
2017-12-22T03:00:45.797Z,4.05
2017-12-22T03:03:13.253Z,4.05
2017-12-22T03:05:40.969Z,4.02
2017-12-22T03:08:08.434Z,3.99
2017-12-22T03:10:35.904Z,3.91
2017-12-22T03:13:03.784Z,3.94
2017-12-22T03:15:31.244Z,3.92
2017-12-22T03:17:58.696Z,3.93
2017-12-22T03:20:26.704Z,3.95
2017-12-22T03:22:54.165Z,3.91
2017-12-22T03:25:21.621Z,3.94
2017-12-22T03:27:49.689Z,3.97
2017-12-22T03:30:17.145Z,3.96
2017-12-22T03:32:45.300Z,3.97
2017-12-22T03:35:13.310Z,3.97
2017-12-22T03:37:40.761Z,3.94
2017-12-22T03:40:08.233Z,3.92
2017-12-22T03:42:35.869Z,4.00
2017-12-22T03:45:03.808Z,3.96
2017-12-22T03:47:31.277Z,3.99
2017-12-22T03:49:59.293Z,3.98
2017-12-22T03:52:26.757Z,4.01
2017-12-22T03:54:54.220Z,4.02
2017-12-22T03:57:22.529Z,4.00
2017-12-22T03:59:50.000Z,3.98
2017-12-22T04:02:17.462Z,3.90
2017-12-22T04:04:45.286Z,3.93
2017-12-22T04:07:12.745Z,3.88
2017-12-22T04:09:40.204Z,3.87
2017-12-22T04:12:07.972Z,3.88
2017-12-22T04:14:35.434Z,3.83
2017-12-22T04:17:03.243Z,3.86
2017-12-22T04:19:30.961Z,3.77
2017-12-22T04:21:58.412Z,3.82
2017-12-22T04:24:25.867Z,3.83
2017-12-22T04:26:53.958Z,3.77
2017-12-22T04:29:21.415Z,3.81
2017-12-22T04:31:48.878Z,3.86
2017-12-22T04:34:17.957Z,3.84
2017-12-22T04:36:45.414Z,3.84
2017-12-22T04:39:12.877Z,3.85
2017-12-22T04:41:40.692Z,3.87
2017-12-22T04:44:08.137Z,3.84
2017-12-22T04:46:35.597Z,3.88
2017-12-22T04:49:03.561Z,3.85
2017-12-22T04:51:31.021Z,3.91
2017-12-22T04:53:58.481Z,3.89
2017-12-22T04:56:26.545Z,4.00
2017-12-22T04:58:54.014Z,4.03
2017-12-22T05:01:21.468Z,3.96
2017-12-22T05:03:49.241Z,4.01
2017-12-22T05:06:16.694Z,4.16
2017-12-22T05:08:44.161Z,4.18
2017-12-22T05:11:11.913Z,4.25
2017-12-22T05:13:39.365Z,4.25
2017-12-22T05:16:06.826Z,4.22
2017-12-22T05:18:34.609Z,4.22
2017-12-22T05:21:02.064Z,4.20
2017-12-22T05:23:29.527Z,4.16
2017-12-22T05:25:57.481Z,4.07
2017-12-22T05:35:08.425Z,3.94
2017-12-22T05:37:35.881Z,3.95
2017-12-22T05:40:03.329Z,3.97
2017-12-22T05:42:31.109Z,4.03
2017-12-22T05:44:58.564Z,4.13
2017-12-22T05:47:26.020Z,4.11
2017-12-22T05:49:53.813Z,4.18
2017-12-22T05:52:21.271Z,4.17
2017-12-22T05:54:48.734Z,4.15
2017-12-22T05:57:16.505Z,4.17
2017-12-22T05:59:43.966Z,4.28
2017-12-22T06:02:11.421Z,4.29
2017-12-22T06:04:39.190Z,4.23
2017-12-22T06:07:06.642Z,4.28
2017-12-22T06:09:34.109Z,4.27
2017-12-22T06:12:01.861Z,4.26
2017-12-22T06:14:29.312Z,4.17
2017-12-22T06:16:56.759Z,4.26
2017-12-22T06:19:24.546Z,4.29
2017-12-22T06:21:52.001Z,4.35
2017-12-22T06:24:19.460Z,4.35
2017-12-22T06:26:47.549Z,4.35
2017-12-22T06:29:15.013Z,4.26
2017-12-22T06:31:42.475Z,4.32
2017-12-22T06:34:10.224Z,4.34
2017-12-22T06:36:38.380Z,4.33
2017-12-22T06:39:05.829Z,4.43
2017-12-22T06:41:33.660Z,4.45
2017-12-22T06:44:01.113Z,4.47
2017-12-22T06:46:28.566Z,4.51
2017-12-22T06:48:56.516Z,4.51
2017-12-22T06:51:23.971Z,4.53
2017-12-22T06:53:51.425Z,4.45
2017-12-22T06:56:19.094Z,4.47
2017-12-22T06:58:46.549Z,4.50
2017-12-22T07:01:14.014Z,4.49
2017-12-22T07:03:41.920Z,4.52
2017-12-22T07:06:09.390Z,4.51
2017-12-22T07:08:36.992Z,4.45
2017-12-22T07:11:04.902Z,4.51
2017-12-22T07:13:32.362Z,4.48
2017-12-22T07:15:59.827Z,4.47
2017-12-22T07:18:27.588Z,4.50
2017-12-22T07:20:55.052Z,4.42
2017-12-22T07:23:22.516Z,4.46
2017-12-22T07:25:50.269Z,4.47
2017-12-22T07:28:17.734Z,4.56
2017-12-22T07:30:45.204Z,4.49
2017-12-22T07:33:12.965Z,4.40
2017-12-22T07:35:40.425Z,4.42
2017-12-22T07:38:07.965Z,4.45
2017-12-22T07:40:35.681Z,4.37
2017-12-22T07:43:03.146Z,4.58
2017-12-22T07:45:30.610Z,4.62
2017-12-22T07:47:58.660Z,4.55
2017-12-22T07:50:26.121Z,4.59
2017-12-22T07:52:53.586Z,4.61
2017-12-22T07:55:21.548Z,4.56
2017-12-22T07:57:49.009Z,4.56
2017-12-22T08:00:16.468Z,4.56
2017-12-22T08:02:44.280Z,4.54
2017-12-22T08:05:11.741Z,4.52
2017-12-22T08:07:39.223Z,4.48
2017-12-22T08:10:07.005Z,4.64
2017-12-22T08:12:34.461Z,4.69
2017-12-22T08:15:02.409Z,4.73
2017-12-22T08:17:30.022Z,4.74
2017-12-22T08:19:57.475Z,5.36
2017-12-22T08:22:24.950Z,5.33
2017-12-22T08:24:52.993Z,5.02
2017-12-22T08:27:20.462Z,5.03
2017-12-22T08:29:47.929Z,4.97
2017-12-22T08:32:16.007Z,5.03
2017-12-22T08:34:43.473Z,4.99
2017-12-22T08:37:10.939Z,5.01
2017-12-22T08:39:39.621Z,5.10
2017-12-22T08:42:07.084Z,4.99
2017-12-22T08:44:34.542Z,5.05
2017-12-22T08:47:02.289Z,5.04
2017-12-22T08:49:29.777Z,5.04
2017-12-22T08:51:57.248Z,5.10
2017-12-22T08:54:24.881Z,5.08
2017-12-22T08:56:52.340Z,5.12
2017-12-22T08:59:19.802Z,5.16
2017-12-22T09:01:47.666Z,5.08
2017-12-22T09:04:15.117Z,4.98
2017-12-22T09:06:42.576Z,5.05
2017-12-22T09:09:10.337Z,4.98
2017-12-22T09:11:38.302Z,4.98
2017-12-22T09:14:05.755Z,4.88
2017-12-22T09:16:33.963Z,4.93
2017-12-22T09:19:01.454Z,4.90
2017-12-22T09:21:28.904Z,4.92
2017-12-22T09:23:56.974Z,4.91
2017-12-22T09:26:24.433Z,4.96
2017-12-22T09:28:52.603Z,4.97
2017-12-22T09:31:20.570Z,5.05
2017-12-22T09:33:48.020Z,5.02
2017-12-22T09:36:15.481Z,5.15
2017-12-22T09:38:43.272Z,5.09
2017-12-22T09:41:11.458Z,5.21
2017-12-22T09:43:38.938Z,5.20
2017-12-22T09:46:06.822Z,5.23
2017-12-22T09:48:34.360Z,5.24
2017-12-22T09:51:01.878Z,5.20
2017-12-22T09:53:30.167Z,5.30
2017-12-22T09:55:57.628Z,5.26
2017-12-22T09:58:25.139Z,5.29
2017-12-22T10:00:52.846Z,5.28
2017-12-22T10:03:20.306Z,5.31
2017-12-22T10:05:47.781Z,5.22
2017-12-22T10:08:15.834Z,5.20
2017-12-22T10:10:43.293Z,5.27
2017-12-22T10:13:10.748Z,5.28
2017-12-22T10:15:38.550Z,5.36
2017-12-22T10:18:06.008Z,5.41
2017-12-22T10:20:33.472Z,5.42
2017-12-22T10:23:01.106Z,5.53
2017-12-22T10:25:28.557Z,5.55
2017-12-22T10:27:56.028Z,5.63
2017-12-22T10:30:24.043Z,5.52
2017-12-22T10:32:51.507Z,5.72
2017-12-22T10:35:19.176Z,5.84
2017-12-22T10:37:46.893Z,5.86
2017-12-22T10:40:14.344Z,5.85
2017-12-22T10:42:42.193Z,5.79
2017-12-22T10:45:10.373Z,5.85
2017-12-22T10:47:38.009Z,5.93
2017-12-22T10:50:05.470Z,5.90
2017-12-22T10:52:33.203Z,6.02
2017-12-22T10:55:00.660Z,6.02
2017-12-22T10:57:28.225Z,5.91
2017-12-22T10:59:55.865Z,5.98
2017-12-22T11:02:23.325Z,5.94
2017-12-22T11:04:50.777Z,6.02
2017-12-22T11:07:18.555Z,5.99
2017-12-22T11:09:46.019Z,6.06
2017-12-22T11:12:13.487Z,6.03
2017-12-22T11:14:41.274Z,6.03
2017-12-22T11:17:09.503Z,6.14
2017-12-22T11:19:36.964Z,6.11
2017-12-22T11:22:04.808Z,6.06
2017-12-22T11:24:32.325Z,6.11
2017-12-22T11:27:00.136Z,6.17
2017-12-22T11:29:28.162Z,6.21
2017-12-22T11:31:55.620Z,6.25
2017-12-22T11:34:23.082Z,6.17
2017-12-22T11:36:51.156Z,6.19
2017-12-22T11:39:18.619Z,6.17
2017-12-22T11:41:46.072Z,6.08
2017-12-22T11:44:13.867Z,6.10
2017-12-22T11:46:41.358Z,6.15
2017-12-22T11:49:08.819Z,6.35
2017-12-22T11:51:36.842Z,6.24
2017-12-22T11:54:04.317Z,6.07
2017-12-22T11:56:31.785Z,5.92
2017-12-22T11:58:59.519Z,6.10
2017-12-22T12:01:26.985Z,6.17
2017-12-22T12:03:54.445Z,6.16
2017-12-22T12:06:22.261Z,6.13
2017-12-22T12:08:49.716Z,6.17
2017-12-22T12:11:17.176Z,6.28
2017-12-22T12:13:44.904Z,6.33
2017-12-22T12:16:12.366Z,6.28
2017-12-22T12:18:39.825Z,6.32
2017-12-22T12:21:07.581Z,6.44
2017-12-22T12:23:35.037Z,6.50
2017-12-22T12:26:02.497Z,6.47
2017-12-22T12:28:30.270Z,6.53
2017-12-22T12:30:57.739Z,6.45
2017-12-22T12:33:25.220Z,6.46
2017-12-22T12:35:52.961Z,6.38
2017-12-22T12:38:20.420Z,6.36
2017-12-22T12:40:47.887Z,6.39
2017-12-22T12:43:16.015Z,6.31
2017-12-22T12:45:43.991Z,6.35
2017-12-22T12:48:11.454Z,6.46
2017-12-22T12:50:39.214Z,6.44
2017-12-22T12:53:06.672Z,6.46
2017-12-22T12:55:34.129Z,6.51
2017-12-22T12:58:01.940Z,6.46
2017-12-22T13:00:29.393Z,6.50
2017-12-22T13:02:56.850Z,6.54
2017-12-22T13:05:24.943Z,6.46
2017-12-22T13:07:52.402Z,6.49
2017-12-22T13:10:19.863Z,6.47
2017-12-22T13:12:47.492Z,6.47
2017-12-22T13:15:14.944Z,6.46
2017-12-22T13:17:42.409Z,6.45
2017-12-22T13:20:10.315Z,6.47
2017-12-22T13:22:37.816Z,6.51
2017-12-22T13:25:05.562Z,6.61
2017-12-22T13:27:33.311Z,6.61
2017-12-22T13:30:00.765Z,6.72
2017-12-22T13:32:28.233Z,6.80
2017-12-22T13:34:55.956Z,6.75
2017-12-22T13:37:23.415Z,6.71
2017-12-22T13:39:50.882Z,6.70
2017-12-22T13:42:18.685Z,6.72
2017-12-22T13:44:46.187Z,6.75
2017-12-22T13:47:16.450Z,6.75
2017-12-22T13:49:44.186Z,6.68
2017-12-22T13:52:11.637Z,6.55
2017-12-22T13:54:39.364Z,6.63
2017-12-22T13:57:06.972Z,6.67
2017-12-22T13:59:34.443Z,6.66
2017-12-22T14:02:01.910Z,6.66
2017-12-22T14:04:29.820Z,6.66
2017-12-22T14:06:57.273Z,6.69
2017-12-22T14:09:24.733Z,6.73
2017-12-22T14:11:52.572Z,6.79
2017-12-22T14:14:20.042Z,6.59
2017-12-22T14:16:47.498Z,6.63
2017-12-22T14:19:15.505Z,6.65
2017-12-22T14:21:43.432Z,6.62
2017-12-22T14:24:10.877Z,6.59
2017-12-22T14:26:38.790Z,6.59
2017-12-22T14:29:06.250Z,6.55
2017-12-22T14:31:33.701Z,6.60
2017-12-22T14:34:01.518Z,6.55
2017-12-22T14:36:28.954Z,6.65
2017-12-22T14:38:56.420Z,6.55
2017-12-22T14:41:24.159Z,6.55
2017-12-22T14:43:51.614Z,6.45
2017-12-22T14:46:19.077Z,6.44
2017-12-22T14:48:47.461Z,6.34
2017-12-22T14:51:14.913Z,6.17
2017-12-22T14:53:42.369Z,6.14
2017-12-22T14:56:10.160Z,6.15
2017-12-22T14:58:37.621Z,6.31
2017-12-22T15:01:05.097Z,6.12
2017-12-22T15:03:32.819Z,6.13
2017-12-22T15:06:00.289Z,6.33
2017-12-22T15:08:27.756Z,6.20
2017-12-22T15:10:55.532Z,6.13
2017-12-22T15:13:23.004Z,6.12
2017-12-22T15:15:50.457Z,6.29
2017-12-22T15:18:18.224Z,6.31
2017-12-22T15:20:46.040Z,6.24
2017-12-22T15:23:13.494Z,6.36
2017-12-22T15:25:41.515Z,6.44
2017-12-22T15:28:08.969Z,6.46
2017-12-22T15:30:36.429Z,6.45
2017-12-22T15:33:04.203Z,6.15
2017-12-22T15:35:32.019Z,6.09
2017-12-22T15:37:59.479Z,6.28
2017-12-22T15:40:27.193Z,6.43
2017-12-22T15:42:54.649Z,6.46
2017-12-22T15:45:22.101Z,6.46
2017-12-22T15:47:49.842Z,6.39
2017-12-22T15:50:18.037Z,6.39
2017-12-22T15:52:45.509Z,6.34
2017-12-22T15:55:13.385Z,6.29
2017-12-22T15:57:40.840Z,6.16
2017-12-22T16:00:08.293Z,6.32
2017-12-22T16:02:36.192Z,6.31
2017-12-22T16:05:03.704Z,6.19
2017-12-22T16:07:32.130Z,6.03
2017-12-22T16:10:00.105Z,6.15
2017-12-22T16:12:27.560Z,6.22
2017-12-22T16:14:55.027Z,6.31
2017-12-22T16:17:23.393Z,6.14
2017-12-22T16:19:50.866Z,6.30
2017-12-22T16:22:18.329Z,6.27
2017-12-22T16:24:46.082Z,6.07
2017-12-22T16:27:13.545Z,6.20
2017-12-22T16:29:41.010Z,6.17
2017-12-22T16:32:08.777Z,6.27
2017-12-22T16:34:36.252Z,6.32
2017-12-22T16:37:03.728Z,6.20
2017-12-22T16:39:31.677Z,6.24
2017-12-22T16:41:59.141Z,6.20
2017-12-22T16:44:26.597Z,6.04
2017-12-22T16:46:54.462Z,6.13
2017-12-22T16:49:21.920Z,6.20
2017-12-22T16:51:50.066Z,6.20
2017-12-22T16:54:18.061Z,6.08
2017-12-22T16:56:45.528Z,6.16
2017-12-22T16:59:12.997Z,6.01
2017-12-22T17:01:41.357Z,6.11
2017-12-22T17:04:08.829Z,6.10
2017-12-22T17:06:36.286Z,5.97
2017-12-22T17:09:04.372Z,6.13
2017-12-22T17:11:31.838Z,6.19
2017-12-22T17:13:59.297Z,6.26
2017-12-22T17:16:27.054Z,6.37
2017-12-22T17:18:54.513Z,6.32
2017-12-22T17:21:21.973Z,6.26
2017-12-22T17:23:49.731Z,6.24
2017-12-22T17:26:17.185Z,6.42
2017-12-22T17:28:44.644Z,6.38
2017-12-22T17:31:12.418Z,6.34
2017-12-22T17:33:39.880Z,6.35
2017-12-22T17:36:07.341Z,6.38
2017-12-22T17:38:35.424Z,6.30
2017-12-22T17:41:02.886Z,6.29
2017-12-22T17:43:30.350Z,6.15
2017-12-22T17:45:58.402Z,6.08
2017-12-22T17:48:25.857Z,6.27
2017-12-22T17:50:53.314Z,6.30
2017-12-22T17:53:22.021Z,6.02
2017-12-22T17:55:49.476Z,5.94
2017-12-22T17:58:16.937Z,6.03
2017-12-22T18:00:44.721Z,6.03
2017-12-22T18:03:12.180Z,6.16
2017-12-22T18:05:39.977Z,6.14
2017-12-22T18:08:08.006Z,6.12
2017-12-22T18:10:35.685Z,6.07
2017-12-22T18:13:03.224Z,6.15
2017-12-22T18:15:31.003Z,6.21
2017-12-22T18:17:58.471Z,6.24
2017-12-22T18:20:25.922Z,6.20
2017-12-22T18:22:53.698Z,6.16
2017-12-22T18:25:21.158Z,6.22
2017-12-22T18:27:48.650Z,6.28
2017-12-22T18:30:16.692Z,6.26
2017-12-22T18:32:44.437Z,6.25
2017-12-22T18:35:11.890Z,6.27
2017-12-22T18:37:39.681Z,6.22
2017-12-22T18:40:07.144Z,6.21
2017-12-22T18:42:34.636Z,6.21
2017-12-22T18:45:02.432Z,6.21
2017-12-22T18:47:29.850Z,6.05
2017-12-22T18:49:57.551Z,6.15
2017-12-22T18:52:25.381Z,6.16
2017-12-22T18:54:53.210Z,6.06
2017-12-22T18:57:20.681Z,6.11
2017-12-22T18:59:48.661Z,6.27
2017-12-22T19:02:16.121Z,6.26
2017-12-22T19:04:43.665Z,6.22
2017-12-22T19:07:11.651Z,6.24
2017-12-22T19:09:39.118Z,6.17
2017-12-22T19:12:06.576Z,6.12
2017-12-22T19:14:34.335Z,6.09
2017-12-22T19:17:01.802Z,6.03
2017-12-22T19:19:29.271Z,5.99
2017-12-22T19:21:57.342Z,6.07
2017-12-22T19:24:24.796Z,6.05
2017-12-22T19:26:52.262Z,6.12
2017-12-22T19:29:19.899Z,6.07
2017-12-22T19:31:47.354Z,6.15
2017-12-22T19:34:14.817Z,6.11
2017-12-22T19:36:42.701Z,6.16
2017-12-22T19:39:10.189Z,6.19
2017-12-22T19:41:37.642Z,6.18
2017-12-22T19:44:05.398Z,6.09
2017-12-22T19:46:32.869Z,6.19
2017-12-22T19:49:00.338Z,6.22
2017-12-22T19:51:28.075Z,6.25
2017-12-22T19:53:55.528Z,6.28
2017-12-22T19:56:23.329Z,6.31
2017-12-22T19:58:51.081Z,6.27
2017-12-22T20:01:18.538Z,6.31
2017-12-22T20:03:46.007Z,6.28
2017-12-22T20:06:13.764Z,6.31
2017-12-22T20:08:41.228Z,6.18
2017-12-22T20:11:08.696Z,6.09
2017-12-22T20:13:36.748Z,6.16
2017-12-22T20:16:04.214Z,5.94
2017-12-22T20:18:31.678Z,5.86
2017-12-22T20:20:59.445Z,5.76
2017-12-22T20:23:26.897Z,5.75
2017-12-22T20:25:54.357Z,5.60
2017-12-22T20:28:22.156Z,5.75
2017-12-22T20:30:49.613Z,5.83
2017-12-22T20:33:17.065Z,5.86
2017-12-22T20:35:44.814Z,5.91
2017-12-22T20:38:12.262Z,5.92
2017-12-22T20:40:39.722Z,5.92
2017-12-22T20:43:07.305Z,5.87
2017-12-22T20:45:34.773Z,5.82
2017-12-22T20:48:02.233Z,5.83
2017-12-22T20:50:30.192Z,5.89
2017-12-22T20:52:57.655Z,5.83
2017-12-22T20:55:25.159Z,5.88
2017-12-22T20:57:53.512Z,5.91
2017-12-22T21:00:20.965Z,5.94
2017-12-22T21:02:48.425Z,5.88
2017-12-22T21:05:16.186Z,5.85
2017-12-22T21:07:43.642Z,5.90
2017-12-22T21:10:11.109Z,5.90
2017-12-22T21:12:38.847Z,5.79
2017-12-22T21:15:06.306Z,5.94
2017-12-22T21:17:33.777Z,5.96
2017-12-22T21:20:01.617Z,5.98
2017-12-22T21:22:29.087Z,5.95
2017-12-22T21:24:56.541Z,6.15
2017-12-22T21:27:24.247Z,6.05
2017-12-22T21:29:51.925Z,6.23
2017-12-22T21:32:19.372Z,6.00
2017-12-22T21:34:47.547Z,6.01
2017-12-22T21:37:15.005Z,6.01
2017-12-22T21:39:42.460Z,5.98
2017-12-22T21:42:11.154Z,5.92
2017-12-22T21:44:38.621Z,5.85
2017-12-22T21:47:06.096Z,5.72
2017-12-22T21:49:33.843Z,5.92
2017-12-22T21:52:01.315Z,5.96
2017-12-22T21:54:28.785Z,5.82
2017-12-22T21:56:56.832Z,5.88
2017-12-22T21:59:24.686Z,5.83
2017-12-22T22:01:52.141Z,5.73
2017-12-22T22:04:20.132Z,5.72
2017-12-22T22:06:47.583Z,5.74
2017-12-22T22:09:15.031Z,5.56
2017-12-22T22:11:43.049Z,5.58
2017-12-22T22:14:10.503Z,5.51
2017-12-22T22:16:37.953Z,5.61
2017-12-22T22:19:06.003Z,5.51
2017-12-22T22:21:33.460Z,5.68
2017-12-22T22:24:00.923Z,5.52
2017-12-22T22:26:28.812Z,5.49
2017-12-22T22:28:56.321Z,5.57
2017-12-22T22:31:23.777Z,5.48
2017-12-22T22:33:51.807Z,5.47
2017-12-22T22:36:19.271Z,5.49
2017-12-22T22:38:46.728Z,5.61
2017-12-22T22:41:14.490Z,5.59
2017-12-22T22:43:41.962Z,5.59
2017-12-22T22:46:09.518Z,5.54
2017-12-22T22:48:37.175Z,5.50
2017-12-22T22:51:04.641Z,5.48
2017-12-22T22:53:32.105Z,5.46
2017-12-22T22:55:59.826Z,5.57
2017-12-22T22:58:27.293Z,5.50
2017-12-22T23:00:55.385Z,5.49
2017-12-22T23:03:23.180Z,5.44
2017-12-22T23:05:50.631Z,5.42
2017-12-22T23:08:18.090Z,5.46
2017-12-22T23:10:45.857Z,5.38
2017-12-22T23:13:13.321Z,5.22
2017-12-22T23:15:40.778Z,5.24
2017-12-22T23:18:09.238Z,5.30
2017-12-22T23:20:36.693Z,5.31
2017-12-22T23:23:04.150Z,5.45
2017-12-22T23:25:31.836Z,5.37
2017-12-22T23:27:59.294Z,5.34
2017-12-22T23:30:26.749Z,5.37
2017-12-22T23:32:54.527Z,5.33
2017-12-22T23:35:21.985Z,5.48
2017-12-22T23:37:49.483Z,5.34
2017-12-22T23:40:17.214Z,5.40
2017-12-22T23:42:44.665Z,5.40
2017-12-22T23:45:12.125Z,5.41
2017-12-22T23:47:39.905Z,5.37
2017-12-22T23:50:07.359Z,5.22
2017-12-22T23:52:34.821Z,5.25
2017-12-22T23:55:02.592Z,5.28
2017-12-22T23:57:30.053Z,5.34
2017-12-22T23:59:57.514Z,5.50
